sensor_id;sensor_type;location;lat;lon;timestamp;P1;durP1;ratioP1;P2;durP2;ratioP2
15110;SDS011;7656;51.954;7.998;2023-04-24T00:02:14;1.17;;;0.80;;
15110;SDS011;7656;51.954;7.998;2023-04-24T00:06:36;0.60;;;0.60;;
15110;SDS011;7656;51.954;7.998;2023-04-24T00:10:59;0.97;;;0.80;;
15110;SDS011;7656;51.954;7.998;2023-04-24T00:15:20;0.90;;;0.90;;
15110;SDS011;7656;51.954;7.998;2023-04-24T00:19:41;0.80;;;0.80;;
15110;SDS011;7656;51.954;7.998;2023-04-24T00:24:02;0.70;;;0.70;;
15110;SDS011;7656;51.954;7.998;2023-04-24T00:28:24;3.63;;;2.70;;
15110;SDS011;7656;51.954;7.998;2023-04-24T00:32:45;4.53;;;4.13;;
15110;SDS011;7656;51.954;7.998;2023-04-24T00:37:06;10.87;;;9.87;;
15110;SDS011;7656;51.954;7.998;2023-04-24T00:41:27;10.17;;;9.17;;
15110;SDS011;7656;51.954;7.998;2023-04-24T00:45:50;16.10;;;14.70;;
15110;SDS011;7656;51.954;7.998;2023-04-24T00:50:11;13.97;;;11.97;;
15110;SDS011;7656;51.954;7.998;2023-04-24T00:54:36;5.57;;;4.20;;
15110;SDS011;7656;51.954;7.998;2023-04-24T00:58:57;1.27;;;1.17;;
15110;SDS011;7656;51.954;7.998;2023-04-24T01:03:19;0.77;;;0.77;;
15110;SDS011;7656;51.954;7.998;2023-04-24T01:07:46;1.10;;;1.00;;
15110;SDS011;7656;51.954;7.998;2023-04-24T01:12:09;0.70;;;0.70;;
15110;SDS011;7656;51.954;7.998;2023-04-24T01:16:31;1.10;;;1.00;;
15110;SDS011;7656;51.954;7.998;2023-04-24T01:20:56;0.70;;;0.70;;
15110;SDS011;7656;51.954;7.998;2023-04-24T01:25:20;2.13;;;1.03;;
15110;SDS011;7656;51.954;7.998;2023-04-24T01:29:41;0.90;;;0.90;;
15110;SDS011;7656;51.954;7.998;2023-04-24T01:34:04;2.40;;;1.20;;
15110;SDS011;7656;51.954;7.998;2023-04-24T01:38:25;0.83;;;0.83;;
15110;SDS011;7656;51.954;7.998;2023-04-24T01:42:47;1.00;;;0.90;;
15110;SDS011;7656;51.954;7.998;2023-04-24T01:47:08;2.20;;;0.90;;
15110;SDS011;7656;51.954;7.998;2023-04-24T01:51:29;0.87;;;0.87;;
15110;SDS011;7656;51.954;7.998;2023-04-24T01:55:51;1.63;;;1.00;;
15110;SDS011;7656;51.954;7.998;2023-04-24T02:00:12;0.83;;;0.83;;
15110;SDS011;7656;51.954;7.998;2023-04-24T02:04:34;1.20;;;1.07;;
15110;SDS011;7656;51.954;7.998;2023-04-24T02:08:56;0.90;;;0.90;;
15110;SDS011;7656;51.954;7.998;2023-04-24T02:13:19;1.03;;;1.03;;
15110;SDS011;7656;51.954;7.998;2023-04-24T02:17:40;1.00;;;1.00;;
15110;SDS011;7656;51.954;7.998;2023-04-24T02:22:01;2.00;;;1.30;;
15110;SDS011;7656;51.954;7.998;2023-04-24T02:26:22;1.60;;;1.50;;
15110;SDS011;7656;51.954;7.998;2023-04-24T02:30:45;1.17;;;1.10;;
15110;SDS011;7656;51.954;7.998;2023-04-24T02:35:07;1.50;;;1.40;;
15110;SDS011;7656;51.954;7.998;2023-04-24T02:39:29;1.57;;;1.47;;
15110;SDS011;7656;51.954;7.998;2023-04-24T02:43:50;2.13;;;1.93;;
15110;SDS011;7656;51.954;7.998;2023-04-24T02:48:11;2.63;;;1.33;;
15110;SDS011;7656;51.954;7.998;2023-04-24T02:52:32;1.80;;;1.63;;
15110;SDS011;7656;51.954;7.998;2023-04-24T02:56:53;2.13;;;1.83;;
15110;SDS011;7656;51.954;7.998;2023-04-24T03:01:15;1.90;;;1.70;;
15110;SDS011;7656;51.954;7.998;2023-04-24T03:05:36;1.50;;;1.40;;
15110;SDS011;7656;51.954;7.998;2023-04-24T03:09:58;1.83;;;1.73;;
15110;SDS011;7656;51.954;7.998;2023-04-24T03:14:20;1.60;;;1.50;;
15110;SDS011;7656;51.954;7.998;2023-04-24T03:18:42;3.30;;;1.90;;
15110;SDS011;7656;51.954;7.998;2023-04-24T03:23:04;2.37;;;1.87;;
15110;SDS011;7656;51.954;7.998;2023-04-24T03:27:25;2.27;;;2.07;;
15110;SDS011;7656;51.954;7.998;2023-04-24T03:32:00;2.33;;;2.13;;
15110;SDS011;7656;51.954;7.998;2023-04-24T03:36:22;2.80;;;2.10;;
15110;SDS011;7656;51.954;7.998;2023-04-24T03:40:43;2.10;;;1.93;;
15110;SDS011;7656;51.954;7.998;2023-04-24T03:45:22;5.33;;;2.33;;
15110;SDS011;7656;51.954;7.998;2023-04-24T03:49:45;2.20;;;2.00;;
15110;SDS011;7656;51.954;7.998;2023-04-24T03:54:07;2.37;;;2.17;;
15110;SDS011;7656;51.954;7.998;2023-04-24T03:58:31;2.47;;;2.27;;
15110;SDS011;7656;51.954;7.998;2023-04-24T04:02:52;3.83;;;2.87;;
15110;SDS011;7656;51.954;7.998;2023-04-24T04:07:14;3.63;;;2.97;;
15110;SDS011;7656;51.954;7.998;2023-04-24T04:11:35;6.17;;;4.03;;
15110;SDS011;7656;51.954;7.998;2023-04-24T04:15:57;7.00;;;4.93;;
15110;SDS011;7656;51.954;7.998;2023-04-24T04:20:18;8.60;;;5.57;;
15110;SDS011;7656;51.954;7.998;2023-04-24T04:24:39;7.90;;;5.33;;
15110;SDS011;7656;51.954;7.998;2023-04-24T04:29:02;7.07;;;5.77;;
15110;SDS011;7656;51.954;7.998;2023-04-24T04:33:25;8.83;;;5.93;;
15110;SDS011;7656;51.954;7.998;2023-04-24T04:37:46;7.60;;;5.63;;
15110;SDS011;7656;51.954;7.998;2023-04-24T04:42:24;7.87;;;6.07;;
15110;SDS011;7656;51.954;7.998;2023-04-24T04:46:47;9.80;;;6.53;;
15110;SDS011;7656;51.954;7.998;2023-04-24T04:51:29;10.80;;;5.83;;
15110;SDS011;7656;51.954;7.998;2023-04-24T04:55:52;10.57;;;6.47;;
15110;SDS011;7656;51.954;7.998;2023-04-24T05:00:15;8.60;;;5.97;;
15110;SDS011;7656;51.954;7.998;2023-04-24T05:04:43;8.97;;;6.43;;
15110;SDS011;7656;51.954;7.998;2023-04-24T05:09:04;10.37;;;5.93;;
15110;SDS011;7656;51.954;7.998;2023-04-24T05:13:35;10.83;;;7.33;;
15110;SDS011;7656;51.954;7.998;2023-04-24T05:17:59;9.70;;;6.20;;
15110;SDS011;7656;51.954;7.998;2023-04-24T05:22:22;7.90;;;6.27;;
15110;SDS011;7656;51.954;7.998;2023-04-24T05:26:46;7.13;;;5.80;;
15110;SDS011;7656;51.954;7.998;2023-04-24T05:31:09;10.30;;;6.93;;
15110;SDS011;7656;51.954;7.998;2023-04-24T05:35:31;9.00;;;6.97;;
15110;SDS011;7656;51.954;7.998;2023-04-24T05:39:52;9.03;;;6.57;;
15110;SDS011;7656;51.954;7.998;2023-04-24T05:44:13;9.93;;;6.40;;
15110;SDS011;7656;51.954;7.998;2023-04-24T05:48:36;10.77;;;6.67;;
15110;SDS011;7656;51.954;7.998;2023-04-24T05:52:58;11.43;;;7.33;;
15110;SDS011;7656;51.954;7.998;2023-04-24T05:57:23;8.10;;;6.47;;
15110;SDS011;7656;51.954;7.998;2023-04-24T06:01:48;10.07;;;7.40;;
15110;SDS011;7656;51.954;7.998;2023-04-24T06:06:13;9.73;;;7.07;;
15110;SDS011;7656;51.954;7.998;2023-04-24T06:10:34;12.00;;;7.30;;
15110;SDS011;7656;51.954;7.998;2023-04-24T06:14:55;9.27;;;7.20;;
15110;SDS011;7656;51.954;7.998;2023-04-24T06:19:23;9.53;;;7.47;;
15110;SDS011;7656;51.954;7.998;2023-04-24T06:23:45;10.53;;;7.40;;
15110;SDS011;7656;51.954;7.998;2023-04-24T06:28:07;10.40;;;6.97;;
15110;SDS011;7656;51.954;7.998;2023-04-24T06:32:29;10.97;;;7.20;;
15110;SDS011;7656;51.954;7.998;2023-04-24T06:36:51;9.43;;;6.80;;
15110;SDS011;7656;51.954;7.998;2023-04-24T06:41:12;9.30;;;6.63;;
15110;SDS011;7656;51.954;7.998;2023-04-24T06:45:33;8.70;;;6.50;;
15110;SDS011;7656;51.954;7.998;2023-04-24T06:49:54;6.67;;;5.87;;
15110;SDS011;7656;51.954;7.998;2023-04-24T06:54:15;7.00;;;5.60;;
15110;SDS011;7656;51.954;7.998;2023-04-24T06:58:36;8.93;;;6.13;;
15110;SDS011;7656;51.954;7.998;2023-04-24T07:02:57;8.97;;;5.20;;
15110;SDS011;7656;51.954;7.998;2023-04-24T07:07:19;6.80;;;5.33;;
15110;SDS011;7656;51.954;7.998;2023-04-24T07:11:40;6.37;;;4.73;;
15110;SDS011;7656;51.954;7.998;2023-04-24T07:16:01;4.90;;;4.40;;
15110;SDS011;7656;51.954;7.998;2023-04-24T07:20:22;4.40;;;3.77;;
15110;SDS011;7656;51.954;7.998;2023-04-24T07:24:44;5.83;;;4.37;;
15110;SDS011;7656;51.954;7.998;2023-04-24T07:29:06;5.63;;;4.13;;
15110;SDS011;7656;51.954;7.998;2023-04-24T07:33:28;6.17;;;3.90;;
15110;SDS011;7656;51.954;7.998;2023-04-24T07:37:49;4.93;;;4.43;;
15110;SDS011;7656;51.954;7.998;2023-04-24T07:42:10;5.17;;;4.67;;
15110;SDS011;7656;51.954;7.998;2023-04-24T07:46:31;4.97;;;4.47;;
15110;SDS011;7656;51.954;7.998;2023-04-24T07:50:53;5.50;;;3.93;;
15110;SDS011;7656;51.954;7.998;2023-04-24T07:55:14;4.47;;;4.10;;
15110;SDS011;7656;51.954;7.998;2023-04-24T07:59:36;5.00;;;4.40;;
15110;SDS011;7656;51.954;7.998;2023-04-24T08:03:57;3.77;;;3.30;;
15110;SDS011;7656;51.954;7.998;2023-04-24T08:08:20;3.57;;;3.27;;
15110;SDS011;7656;51.954;7.998;2023-04-24T08:12:43;5.63;;;3.63;;
15110;SDS011;7656;51.954;7.998;2023-04-24T08:17:04;4.73;;;2.90;;
15110;SDS011;7656;51.954;7.998;2023-04-24T08:21:25;3.33;;;3.03;;
15110;SDS011;7656;51.954;7.998;2023-04-24T08:25:48;2.63;;;2.43;;
15110;SDS011;7656;51.954;7.998;2023-04-24T08:30:09;3.93;;;3.30;;
15110;SDS011;7656;51.954;7.998;2023-04-24T08:34:31;3.80;;;3.27;;
15110;SDS011;7656;51.954;7.998;2023-04-24T08:38:52;3.43;;;2.87;;
15110;SDS011;7656;51.954;7.998;2023-04-24T08:43:13;3.20;;;2.90;;
15110;SDS011;7656;51.954;7.998;2023-04-24T08:47:35;3.03;;;2.77;;
15110;SDS011;7656;51.954;7.998;2023-04-24T08:51:58;2.87;;;2.67;;
15110;SDS011;7656;51.954;7.998;2023-04-24T08:56:21;2.70;;;2.43;;
15110;SDS011;7656;51.954;7.998;2023-04-24T09:00:43;3.03;;;2.73;;
15110;SDS011;7656;51.954;7.998;2023-04-24T09:05:07;3.17;;;2.47;;
15110;SDS011;7656;51.954;7.998;2023-04-24T09:09:29;2.33;;;2.13;;
15110;SDS011;7656;51.954;7.998;2023-04-24T09:13:52;2.17;;;1.97;;
15110;SDS011;7656;51.954;7.998;2023-04-24T09:18:15;2.40;;;2.20;;
15110;SDS011;7656;51.954;7.998;2023-04-24T09:22:37;2.60;;;2.40;;
15110;SDS011;7656;51.954;7.998;2023-04-24T09:26:58;2.00;;;1.90;;
15110;SDS011;7656;51.954;7.998;2023-04-24T09:31:21;2.00;;;1.90;;
15110;SDS011;7656;51.954;7.998;2023-04-24T09:35:52;2.20;;;2.10;;
15110;SDS011;7656;51.954;7.998;2023-04-24T09:40:20;2.97;;;2.27;;
15110;SDS011;7656;51.954;7.998;2023-04-24T09:44:43;2.03;;;1.93;;
15110;SDS011;7656;51.954;7.998;2023-04-24T09:49:08;1.80;;;1.70;;
15110;SDS011;7656;51.954;7.998;2023-04-24T09:53:31;2.10;;;1.90;;
15110;SDS011;7656;51.954;7.998;2023-04-24T09:57:57;2.03;;;1.83;;
15110;SDS011;7656;51.954;7.998;2023-04-24T10:02:20;1.90;;;1.80;;
15110;SDS011;7656;51.954;7.998;2023-04-24T10:06:42;1.90;;;1.80;;
15110;SDS011;7656;51.954;7.998;2023-04-24T10:11:03;2.10;;;2.00;;
15110;SDS011;7656;51.954;7.998;2023-04-24T10:15:25;4.20;;;2.27;;
15110;SDS011;7656;51.954;7.998;2023-04-24T10:19:47;2.40;;;2.07;;
15110;SDS011;7656;51.954;7.998;2023-04-24T10:24:08;2.77;;;2.20;;
15110;SDS011;7656;51.954;7.998;2023-04-24T10:28:30;2.80;;;2.40;;
15110;SDS011;7656;51.954;7.998;2023-04-24T10:32:54;2.50;;;2.30;;
15110;SDS011;7656;51.954;7.998;2023-04-24T10:37:16;2.23;;;2.00;;
15110;SDS011;7656;51.954;7.998;2023-04-24T10:41:37;2.50;;;2.40;;
15110;SDS011;7656;51.954;7.998;2023-04-24T10:46:02;2.50;;;2.40;;
15110;SDS011;7656;51.954;7.998;2023-04-24T10:50:26;2.67;;;2.43;;
15110;SDS011;7656;51.954;7.998;2023-04-24T10:54:49;2.70;;;2.50;;
15110;SDS011;7656;51.954;7.998;2023-04-24T10:59:10;2.73;;;2.53;;
15110;SDS011;7656;51.954;7.998;2023-04-24T11:03:50;3.83;;;2.70;;
15110;SDS011;7656;51.954;7.998;2023-04-24T11:08:23;2.80;;;2.30;;
15110;SDS011;7656;51.954;7.998;2023-04-24T11:12:51;3.00;;;2.73;;
15110;SDS011;7656;51.954;7.998;2023-04-24T11:17:26;3.07;;;2.67;;
15110;SDS011;7656;51.954;7.998;2023-04-24T11:26:24;2.53;;;1.43;;
15110;SDS011;7656;51.954;7.998;2023-04-24T11:30:50;1.67;;;1.57;;
15110;SDS011;7656;51.954;7.998;2023-04-24T11:35:16;1.80;;;1.70;;
15110;SDS011;7656;51.954;7.998;2023-04-24T11:39:42;2.60;;;1.50;;
15110;SDS011;7656;51.954;7.998;2023-04-24T11:44:05;3.23;;;2.10;;
15110;SDS011;7656;51.954;7.998;2023-04-24T11:48:28;2.43;;;2.13;;
15110;SDS011;7656;51.954;7.998;2023-04-24T11:52:50;2.83;;;2.40;;
15110;SDS011;7656;51.954;7.998;2023-04-24T11:57:11;2.63;;;2.27;;
15110;SDS011;7656;51.954;7.998;2023-04-24T12:01:42;2.53;;;2.33;;
15110;SDS011;7656;51.954;7.998;2023-04-24T12:06:07;3.23;;;2.70;;
15110;SDS011;7656;51.954;7.998;2023-04-24T12:10:31;3.60;;;2.83;;
15110;SDS011;7656;51.954;7.998;2023-04-24T12:14:56;3.37;;;2.63;;
15110;SDS011;7656;51.954;7.998;2023-04-24T12:19:22;6.47;;;2.73;;
15110;SDS011;7656;51.954;7.998;2023-04-24T12:23:44;2.83;;;2.63;;
15110;SDS011;7656;51.954;7.998;2023-04-24T12:32:28;4.07;;;2.33;;
15110;SDS011;7656;51.954;7.998;2023-04-24T12:36:49;2.80;;;2.20;;
15110;SDS011;7656;51.954;7.998;2023-04-24T12:41:11;3.10;;;2.80;;
15110;SDS011;7656;51.954;7.998;2023-04-24T12:45:33;6.00;;;3.07;;
15110;SDS011;7656;51.954;7.998;2023-04-24T12:49:55;4.23;;;3.03;;
15110;SDS011;7656;51.954;7.998;2023-04-24T12:54:16;4.07;;;3.67;;
15110;SDS011;7656;51.954;7.998;2023-04-24T12:58:37;6.13;;;3.33;;
15110;SDS011;7656;51.954;7.998;2023-04-24T13:02:58;5.67;;;3.30;;
15110;SDS011;7656;51.954;7.998;2023-04-24T13:07:19;7.33;;;3.63;;
15110;SDS011;7656;51.954;7.998;2023-04-24T13:11:40;8.03;;;3.70;;
15110;SDS011;7656;51.954;7.998;2023-04-24T13:16:01;7.60;;;3.87;;
15110;SDS011;7656;51.954;7.998;2023-04-24T13:20:23;7.73;;;3.70;;
15110;SDS011;7656;51.954;7.998;2023-04-24T13:24:44;7.33;;;3.90;;
15110;SDS011;7656;51.954;7.998;2023-04-24T13:29:05;3.90;;;3.17;;
15110;SDS011;7656;51.954;7.998;2023-04-24T13:33:26;3.83;;;2.93;;
15110;SDS011;7656;51.954;7.998;2023-04-24T13:37:47;4.33;;;2.97;;
15110;SDS011;7656;51.954;7.998;2023-04-24T13:42:08;5.27;;;3.07;;
15110;SDS011;7656;51.954;7.998;2023-04-24T13:46:30;8.57;;;3.30;;
15110;SDS011;7656;51.954;7.998;2023-04-24T13:50:51;10.77;;;3.50;;
15110;SDS011;7656;51.954;7.998;2023-04-24T13:55:12;5.67;;;3.40;;
15110;SDS011;7656;51.954;7.998;2023-04-24T13:59:33;5.60;;;3.70;;
15110;SDS011;7656;51.954;7.998;2023-04-24T14:03:54;8.43;;;3.40;;
15110;SDS011;7656;51.954;7.998;2023-04-24T14:08:16;4.23;;;2.70;;
15110;SDS011;7656;51.954;7.998;2023-04-24T14:12:37;6.23;;;3.53;;
15110;SDS011;7656;51.954;7.998;2023-04-24T14:16:58;5.00;;;3.37;;
15110;SDS011;7656;51.954;7.998;2023-04-24T14:21:19;3.37;;;3.03;;
15110;SDS011;7656;51.954;7.998;2023-04-24T14:25:41;2.40;;;1.90;;
15110;SDS011;7656;51.954;7.998;2023-04-24T14:30:02;3.17;;;2.30;;
15110;SDS011;7656;51.954;7.998;2023-04-24T14:34:24;3.60;;;1.80;;
15110;SDS011;7656;51.954;7.998;2023-04-24T14:38:45;3.60;;;1.93;;
15110;SDS011;7656;51.954;7.998;2023-04-24T14:43:07;2.50;;;2.00;;
15110;SDS011;7656;51.954;7.998;2023-04-24T14:47:28;4.50;;;2.30;;
15110;SDS011;7656;51.954;7.998;2023-04-24T14:51:49;4.20;;;1.70;;
15110;SDS011;7656;51.954;7.998;2023-04-24T14:56:10;1.97;;;1.70;;
15110;SDS011;7656;51.954;7.998;2023-04-24T15:00:31;1.83;;;1.73;;
15110;SDS011;7656;51.954;7.998;2023-04-24T15:04:53;4.27;;;1.50;;
15110;SDS011;7656;51.954;7.998;2023-04-24T15:09:14;1.83;;;1.60;;
15110;SDS011;7656;51.954;7.998;2023-04-24T15:13:35;1.97;;;1.87;;
15110;SDS011;7656;51.954;7.998;2023-04-24T15:17:56;3.37;;;1.80;;
15110;SDS011;7656;51.954;7.998;2023-04-24T15:22:17;2.73;;;1.60;;
15110;SDS011;7656;51.954;7.998;2023-04-24T15:26:38;3.17;;;1.73;;
15110;SDS011;7656;51.954;7.998;2023-04-24T15:31:00;3.27;;;1.90;;
15110;SDS011;7656;51.954;7.998;2023-04-24T15:35:21;3.37;;;1.80;;
15110;SDS011;7656;51.954;7.998;2023-04-24T15:39:43;3.63;;;1.70;;
15110;SDS011;7656;51.954;7.998;2023-04-24T15:44:05;2.27;;;2.00;;
15110;SDS011;7656;51.954;7.998;2023-04-24T15:48:27;1.87;;;1.50;;
15110;SDS011;7656;51.954;7.998;2023-04-24T15:52:49;3.67;;;1.70;;
15110;SDS011;7656;51.954;7.998;2023-04-24T15:57:10;2.67;;;2.20;;
15110;SDS011;7656;51.954;7.998;2023-04-24T16:01:32;1.87;;;1.37;;
15110;SDS011;7656;51.954;7.998;2023-04-24T16:05:53;1.87;;;1.73;;
15110;SDS011;7656;51.954;7.998;2023-04-24T16:10:15;4.40;;;1.90;;
15110;SDS011;7656;51.954;7.998;2023-04-24T16:14:36;2.90;;;1.37;;
15110;SDS011;7656;51.954;7.998;2023-04-24T16:18:58;1.93;;;1.73;;
15110;SDS011;7656;51.954;7.998;2023-04-24T16:23:19;1.90;;;1.30;;
15110;SDS011;7656;51.954;7.998;2023-04-24T16:27:41;3.00;;;1.67;;
15110;SDS011;7656;51.954;7.998;2023-04-24T16:32:02;2.20;;;1.47;;
15110;SDS011;7656;51.954;7.998;2023-04-24T16:36:23;2.23;;;1.30;;
15110;SDS011;7656;51.954;7.998;2023-04-24T16:40:45;2.00;;;0.97;;
15110;SDS011;7656;51.954;7.998;2023-04-24T16:45:06;2.67;;;1.20;;
15110;SDS011;7656;51.954;7.998;2023-04-24T16:49:28;4.03;;;1.37;;
15110;SDS011;7656;51.954;7.998;2023-04-24T16:53:51;2.20;;;1.30;;
15110;SDS011;7656;51.954;7.998;2023-04-24T16:58:12;2.10;;;1.30;;
15110;SDS011;7656;51.954;7.998;2023-04-24T17:02:33;2.90;;;1.40;;
15110;SDS011;7656;51.954;7.998;2023-04-24T17:06:54;1.50;;;1.40;;
15110;SDS011;7656;51.954;7.998;2023-04-24T17:11:15;2.13;;;1.30;;
15110;SDS011;7656;51.954;7.998;2023-04-24T17:15:36;4.20;;;2.13;;
15110;SDS011;7656;51.954;7.998;2023-04-24T17:19:58;3.50;;;1.90;;
15110;SDS011;7656;51.954;7.998;2023-04-24T17:24:19;2.23;;;1.60;;
15110;SDS011;7656;51.954;7.998;2023-04-24T17:28:40;8.13;;;2.83;;
15110;SDS011;7656;51.954;7.998;2023-04-24T17:33:01;4.00;;;2.10;;
15110;SDS011;7656;51.954;7.998;2023-04-24T17:37:22;6.47;;;1.73;;
15110;SDS011;7656;51.954;7.998;2023-04-24T17:41:44;2.83;;;1.70;;
15110;SDS011;7656;51.954;7.998;2023-04-24T17:46:05;3.27;;;1.70;;
15110;SDS011;7656;51.954;7.998;2023-04-24T17:50:27;2.37;;;1.63;;
15110;SDS011;7656;51.954;7.998;2023-04-24T17:54:50;4.07;;;2.27;;
15110;SDS011;7656;51.954;7.998;2023-04-24T17:59:11;3.50;;;1.73;;
15110;SDS011;7656;51.954;7.998;2023-04-24T18:03:32;3.37;;;2.20;;
15110;SDS011;7656;51.954;7.998;2023-04-24T18:07:54;2.83;;;1.70;;
15110;SDS011;7656;51.954;7.998;2023-04-24T18:12:15;2.10;;;1.90;;
15110;SDS011;7656;51.954;7.998;2023-04-24T18:16:36;2.30;;;1.80;;
15110;SDS011;7656;51.954;7.998;2023-04-24T18:20:57;7.43;;;2.20;;
15110;SDS011;7656;51.954;7.998;2023-04-24T18:25:19;4.63;;;1.77;;
15110;SDS011;7656;51.954;7.998;2023-04-24T18:29:45;5.73;;;2.50;;
15110;SDS011;7656;51.954;7.998;2023-04-24T18:34:06;4.60;;;2.30;;
15110;SDS011;7656;51.954;7.998;2023-04-24T18:38:28;4.57;;;2.27;;
15110;SDS011;7656;51.954;7.998;2023-04-24T18:42:49;3.17;;;2.03;;
15110;SDS011;7656;51.954;7.998;2023-04-24T18:47:10;2.20;;;1.60;;
15110;SDS011;7656;51.954;7.998;2023-04-24T18:51:32;6.00;;;2.13;;
15110;SDS011;7656;51.954;7.998;2023-04-24T18:55:53;4.77;;;2.27;;
15110;SDS011;7656;51.954;7.998;2023-04-24T19:00:14;2.10;;;1.87;;
15110;SDS011;7656;51.954;7.998;2023-04-24T19:04:36;5.23;;;2.07;;
15110;SDS011;7656;51.954;7.998;2023-04-24T19:08:57;4.50;;;2.20;;
15110;SDS011;7656;51.954;7.998;2023-04-24T19:13:18;5.90;;;2.03;;
15110;SDS011;7656;51.954;7.998;2023-04-24T19:17:40;5.17;;;2.50;;
15110;SDS011;7656;51.954;7.998;2023-04-24T19:22:01;5.47;;;3.00;;
15110;SDS011;7656;51.954;7.998;2023-04-24T19:26:23;7.63;;;2.30;;
15110;SDS011;7656;51.954;7.998;2023-04-24T19:30:46;6.07;;;2.50;;
15110;SDS011;7656;51.954;7.998;2023-04-24T19:35:07;4.83;;;2.33;;
15110;SDS011;7656;51.954;7.998;2023-04-24T19:39:28;5.03;;;2.27;;
15110;SDS011;7656;51.954;7.998;2023-04-24T19:43:51;4.80;;;2.90;;
15110;SDS011;7656;51.954;7.998;2023-04-24T19:48:12;4.90;;;2.63;;
15110;SDS011;7656;51.954;7.998;2023-04-24T19:52:33;4.50;;;2.27;;
15110;SDS011;7656;51.954;7.998;2023-04-24T19:56:55;8.50;;;2.37;;
15110;SDS011;7656;51.954;7.998;2023-04-24T20:01:16;7.90;;;2.17;;
15110;SDS011;7656;51.954;7.998;2023-04-24T20:05:37;4.67;;;2.20;;
15110;SDS011;7656;51.954;7.998;2023-04-24T20:09:58;4.20;;;2.50;;
15110;SDS011;7656;51.954;7.998;2023-04-24T20:14:19;4.77;;;2.73;;
15110;SDS011;7656;51.954;7.998;2023-04-24T20:18:41;6.53;;;2.40;;
15110;SDS011;7656;51.954;7.998;2023-04-24T20:23:02;6.00;;;2.60;;
15110;SDS011;7656;51.954;7.998;2023-04-24T20:27:24;6.67;;;3.07;;
15110;SDS011;7656;51.954;7.998;2023-04-24T20:31:45;5.30;;;2.93;;
15110;SDS011;7656;51.954;7.998;2023-04-24T20:36:07;5.07;;;2.50;;
15110;SDS011;7656;51.954;7.998;2023-04-24T20:40:31;9.40;;;2.83;;
15110;SDS011;7656;51.954;7.998;2023-04-24T20:44:52;4.57;;;2.57;;
15110;SDS011;7656;51.954;7.998;2023-04-24T20:49:13;7.30;;;2.80;;
15110;SDS011;7656;51.954;7.998;2023-04-24T20:53:34;8.00;;;2.57;;
15110;SDS011;7656;51.954;7.998;2023-04-24T20:57:55;6.47;;;2.63;;
15110;SDS011;7656;51.954;7.998;2023-04-24T21:02:16;4.17;;;2.60;;
15110;SDS011;7656;51.954;7.998;2023-04-24T21:06:38;8.57;;;2.50;;
15110;SDS011;7656;51.954;7.998;2023-04-24T21:10:59;4.43;;;2.80;;
15110;SDS011;7656;51.954;7.998;2023-04-24T21:15:20;7.77;;;3.50;;
15110;SDS011;7656;51.954;7.998;2023-04-24T21:19:41;5.33;;;2.93;;
15110;SDS011;7656;51.954;7.998;2023-04-24T21:24:02;4.83;;;2.53;;
15110;SDS011;7656;51.954;7.998;2023-04-24T21:28:24;6.63;;;2.80;;
15110;SDS011;7656;51.954;7.998;2023-04-24T21:32:45;6.97;;;3.30;;
15110;SDS011;7656;51.954;7.998;2023-04-24T21:37:06;10.40;;;3.83;;
15110;SDS011;7656;51.954;7.998;2023-04-24T21:41:27;7.13;;;2.70;;
15110;SDS011;7656;51.954;7.998;2023-04-24T21:45:48;7.40;;;2.80;;
15110;SDS011;7656;51.954;7.998;2023-04-24T21:50:11;5.60;;;3.00;;
15110;SDS011;7656;51.954;7.998;2023-04-24T21:54:32;9.03;;;3.43;;
15110;SDS011;7656;51.954;7.998;2023-04-24T21:58:53;5.37;;;3.20;;
15110;SDS011;7656;51.954;7.998;2023-04-24T22:03:15;3.77;;;3.13;;
15110;SDS011;7656;51.954;7.998;2023-04-24T22:07:36;10.60;;;3.43;;
15110;SDS011;7656;51.954;7.998;2023-04-24T22:11:57;10.20;;;3.87;;
15110;SDS011;7656;51.954;7.998;2023-04-24T22:16:20;6.03;;;3.10;;
15110;SDS011;7656;51.954;7.998;2023-04-24T22:20:43;4.33;;;2.40;;
15110;SDS011;7656;51.954;7.998;2023-04-24T22:25:05;9.67;;;3.90;;
15110;SDS011;7656;51.954;7.998;2023-04-24T22:29:27;6.80;;;2.97;;
15110;SDS011;7656;51.954;7.998;2023-04-24T22:33:48;4.87;;;3.40;;
15110;SDS011;7656;51.954;7.998;2023-04-24T22:38:10;9.93;;;3.47;;
15110;SDS011;7656;51.954;7.998;2023-04-24T22:42:31;5.93;;;2.70;;
15110;SDS011;7656;51.954;7.998;2023-04-24T22:46:53;10.10;;;3.13;;
15110;SDS011;7656;51.954;7.998;2023-04-24T22:51:14;11.33;;;3.70;;
15110;SDS011;7656;51.954;7.998;2023-04-24T22:55:36;8.13;;;3.10;;
15110;SDS011;7656;51.954;7.998;2023-04-24T22:59:57;10.83;;;3.20;;
15110;SDS011;7656;51.954;7.998;2023-04-24T23:04:18;6.70;;;3.00;;
15110;SDS011;7656;51.954;7.998;2023-04-24T23:08:40;7.10;;;3.13;;
15110;SDS011;7656;51.954;7.998;2023-04-24T23:13:01;8.17;;;3.33;;
15110;SDS011;7656;51.954;7.998;2023-04-24T23:17:22;8.77;;;3.17;;
15110;SDS011;7656;51.954;7.998;2023-04-24T23:21:43;5.83;;;3.20;;
15110;SDS011;7656;51.954;7.998;2023-04-24T23:26:04;13.73;;;4.43;;
15110;SDS011;7656;51.954;7.998;2023-04-24T23:30:26;4.73;;;3.13;;
15110;SDS011;7656;51.954;7.998;2023-04-24T23:34:47;12.00;;;3.20;;
15110;SDS011;7656;51.954;7.998;2023-04-24T23:39:08;7.47;;;3.00;;
15110;SDS011;7656;51.954;7.998;2023-04-24T23:43:29;11.30;;;4.03;;
15110;SDS011;7656;51.954;7.998;2023-04-24T23:47:50;9.83;;;3.40;;
15110;SDS011;7656;51.954;7.998;2023-04-24T23:52:11;12.27;;;4.17;;
15110;SDS011;7656;51.954;7.998;2023-04-24T23:56:32;5.87;;;2.73;;
